createdAt,value
2022-12-29T00:03:04.305Z,28.05
2022-12-29T00:06:10.394Z,24.40
2022-12-29T00:09:17.723Z,25.02
2022-12-29T00:12:23.011Z,21.17
2022-12-29T00:15:41.312Z,24.30
2022-12-29T00:18:46.712Z,24.15
2022-12-29T00:22:10.842Z,22.55
2022-12-29T00:25:34.827Z,23.15
2022-12-29T00:28:58.763Z,22.38
2022-12-29T00:32:22.643Z,20.70
2022-12-29T00:35:38.918Z,24.60
2022-12-29T00:39:09.291Z,22.33
2022-12-29T00:42:34.499Z,22.45
2022-12-29T00:45:42.677Z,22.58
2022-12-29T00:49:06.873Z,29.88
2022-12-29T00:52:14.398Z,28.15
2022-12-29T00:55:19.672Z,20.17
2022-12-29T00:58:25.113Z,23.05
2022-12-29T01:01:30.849Z,22.50
2022-12-29T01:04:36.210Z,26.88
2022-12-29T01:07:41.922Z,23.17
2022-12-29T01:10:47.170Z,23.48
2022-12-29T01:13:52.341Z,25.67
2022-12-29T01:16:58.409Z,23.67
2022-12-29T01:20:04.860Z,30.65
2022-12-29T01:23:10.159Z,24.02
2022-12-29T01:26:18.184Z,23.40
2022-12-29T01:29:23.705Z,31.75
2022-12-29T01:32:28.977Z,25.60
2022-12-29T01:35:34.043Z,29.70
2022-12-29T01:38:40.116Z,32.53
2022-12-29T01:41:45.350Z,31.38
2022-12-29T01:45:13.441Z,34.58
2022-12-29T01:48:21.005Z,35.10
2022-12-29T01:51:28.826Z,32.88
2022-12-29T01:54:44.052Z,30.10
2022-12-29T01:57:53.393Z,37.10
2022-12-29T02:00:59.159Z,31.90
2022-12-29T02:04:05.328Z,35.00
2022-12-29T02:07:18.277Z,37.88
2022-12-29T02:10:29.081Z,43.80
2022-12-29T02:13:35.270Z,39.78
2022-12-29T02:17:08.741Z,37.38
2022-12-29T02:20:52.508Z,38.63
2022-12-29T02:24:20.484Z,36.28
2022-12-29T02:28:02.467Z,27.65
2022-12-29T02:31:27.559Z,28.75
2022-12-29T02:34:51.061Z,25.42
2022-12-29T02:38:17.111Z,27.25
2022-12-29T02:41:43.528Z,28.17
2022-12-29T02:45:06.963Z,24.85
2022-12-29T02:48:14.624Z,30.52
2022-12-29T02:51:27.637Z,26.52
2022-12-29T02:54:42.224Z,25.13
2022-12-29T02:57:48.737Z,25.13
2022-12-29T03:01:06.355Z,24.45
2022-12-29T03:04:12.224Z,26.00
2022-12-29T03:07:41.732Z,27.25
2022-12-29T03:11:02.003Z,25.40
2022-12-29T03:14:46.267Z,27.08
2022-12-29T03:18:23.467Z,25.77
2022-12-29T03:21:59.688Z,28.17
2022-12-29T03:25:21.041Z,27.60
2022-12-29T03:28:58.705Z,33.58
2022-12-29T03:32:11.296Z,25.65
2022-12-29T03:35:22.409Z,27.23
2022-12-29T03:38:53.138Z,30.95
2022-12-29T03:42:06.924Z,30.73
2022-12-29T03:45:13.336Z,29.52
2022-12-29T03:48:18.486Z,26.02
2022-12-29T03:51:25.181Z,24.73
2022-12-29T03:54:32.379Z,30.58
2022-12-29T03:57:38.372Z,33.75
2022-12-29T04:00:46.359Z,32.03
2022-12-29T04:03:52.550Z,28.25
2022-12-29T04:06:58.516Z,32.10
2022-12-29T04:10:05.078Z,28.75
2022-12-29T04:13:13.647Z,26.77
2022-12-29T04:16:20.073Z,26.23
2022-12-29T04:19:25.725Z,26.13
2022-12-29T04:22:30.983Z,30.60
2022-12-29T04:25:36.702Z,28.13
2022-12-29T04:28:42.864Z,24.08
2022-12-29T04:31:57.049Z,24.98
2022-12-29T04:35:03.066Z,23.88
2022-12-29T04:38:08.576Z,24.02
2022-12-29T04:41:14.174Z,22.17
2022-12-29T04:44:20.763Z,24.95
2022-12-29T04:47:29.366Z,26.60
2022-12-29T04:50:43.079Z,27.17
2022-12-29T04:53:56.911Z,25.52
2022-12-29T04:57:04.139Z,28.75
2022-12-29T05:00:10.921Z,24.90
2022-12-29T05:03:16.781Z,26.48
2022-12-29T05:06:24.857Z,28.52
2022-12-29T05:09:31.208Z,31.17
2022-12-29T05:12:39.626Z,24.63
2022-12-29T05:15:54.984Z,23.98
2022-12-29T05:19:02.715Z,23.73
2022-12-29T05:22:09.359Z,26.13
2022-12-29T05:25:15.162Z,27.83
2022-12-29T05:28:33.145Z,24.50
2022-12-29T05:31:51.763Z,26.88
2022-12-29T05:34:57.544Z,20.83
2022-12-29T05:38:04.715Z,25.23
2022-12-29T05:41:11.103Z,25.00
2022-12-29T05:44:39.756Z,22.45
2022-12-29T05:47:51.567Z,28.52
2022-12-29T05:51:09.344Z,22.33
2022-12-29T05:54:29.793Z,28.08
2022-12-29T05:57:36.643Z,26.70
2022-12-29T06:03:54.571Z,22.73
2022-12-29T06:07:00.918Z,23.77
2022-12-29T06:10:32.639Z,21.23
2022-12-29T06:13:43.921Z,24.05
2022-12-29T06:16:49.835Z,22.63
2022-12-29T06:19:56.382Z,26.52
2022-12-29T06:23:02.230Z,26.02
2022-12-29T06:26:08.650Z,25.60
2022-12-29T06:29:17.974Z,20.80
2022-12-29T06:32:24.114Z,30.98
2022-12-29T06:35:32.415Z,27.73
2022-12-29T06:38:38.598Z,26.75
2022-12-29T06:41:43.797Z,24.73
2022-12-29T06:45:16.906Z,28.17
2022-12-29T06:48:22.819Z,25.65
2022-12-29T06:51:28.281Z,22.27
2022-12-29T06:54:34.026Z,27.58
2022-12-29T06:57:40.624Z,26.77
2022-12-29T07:00:45.804Z,24.70
2022-12-29T07:03:51.417Z,23.40
2022-12-29T07:06:57.271Z,27.88
2022-12-29T07:10:03.324Z,23.05
2022-12-29T07:13:09.457Z,24.30
2022-12-29T07:16:15.178Z,27.88
2022-12-29T07:19:21.935Z,28.92
2022-12-29T07:22:27.190Z,22.98
2022-12-29T07:25:32.231Z,25.85
2022-12-29T07:28:39.232Z,22.92
2022-12-29T07:31:44.773Z,24.38
2022-12-29T07:34:50.588Z,22.10
2022-12-29T07:37:56.226Z,33.00
2022-12-29T07:41:01.541Z,27.90
2022-12-29T07:44:07.069Z,22.50
2022-12-29T07:47:36.027Z,24.77
2022-12-29T07:50:41.783Z,25.00
2022-12-29T07:53:47.204Z,29.02
2022-12-29T07:56:52.814Z,22.45
2022-12-29T07:59:58.870Z,22.50
2022-12-29T08:03:04.450Z,22.77
2022-12-29T08:06:12.072Z,25.95
2022-12-29T08:09:22.245Z,21.60
2022-12-29T08:12:28.666Z,25.05
2022-12-29T08:15:34.024Z,25.67
2022-12-29T08:18:39.345Z,22.33
2022-12-29T08:21:44.648Z,27.25
2022-12-29T08:24:50.208Z,28.00
2022-12-29T08:27:55.519Z,27.70
2022-12-29T08:31:02.923Z,27.00
2022-12-29T08:34:08.580Z,29.02
2022-12-29T08:37:14.567Z,32.17
2022-12-29T08:40:20.121Z,26.92
2022-12-29T08:43:26.584Z,32.30
2022-12-29T08:46:32.131Z,29.95
2022-12-29T08:49:37.768Z,26.17
2022-12-29T08:52:43.520Z,30.45
2022-12-29T08:56:03.684Z,28.75
2022-12-29T08:59:15.190Z,28.58
2022-12-29T09:02:24.282Z,34.08
2022-12-29T09:05:30.753Z,32.72
2022-12-29T09:08:36.133Z,31.33
2022-12-29T09:11:43.027Z,35.28
2022-12-29T09:14:49.001Z,35.20
2022-12-29T09:17:56.529Z,27.65
2022-12-29T09:21:05.276Z,33.22
2022-12-29T09:24:10.648Z,28.38
2022-12-29T09:27:16.494Z,28.60
2022-12-29T09:30:24.287Z,35.13
2022-12-29T09:33:30.060Z,28.98
2022-12-29T09:36:35.742Z,30.10
2022-12-29T09:39:41.824Z,31.77
2022-12-29T09:43:02.653Z,29.73
2022-12-29T09:46:46.455Z,36.40
2022-12-29T09:50:00.344Z,32.22
2022-12-29T09:53:20.236Z,31.27
2022-12-29T09:56:27.808Z,29.30
2022-12-29T09:59:42.356Z,29.55
2022-12-29T10:02:56.404Z,34.25
2022-12-29T10:06:15.379Z,28.42
2022-12-29T10:09:44.253Z,27.73
2022-12-29T10:13:18.899Z,30.80
2022-12-29T10:16:42.971Z,27.75
2022-12-29T10:20:03.517Z,28.25
2022-12-29T10:23:32.861Z,31.15
2022-12-29T10:26:43.992Z,28.05
2022-12-29T10:30:00.882Z,33.42
2022-12-29T10:33:11.814Z,32.17
2022-12-29T10:36:36.263Z,32.30
2022-12-29T10:39:51.154Z,32.10
2022-12-29T10:42:58.656Z,34.83
2022-12-29T10:46:10.521Z,33.65
2022-12-29T10:49:21.932Z,39.17
2022-12-29T10:52:30.077Z,40.30
2022-12-29T10:55:39.462Z,33.20
2022-12-29T10:58:50.354Z,35.97
2022-12-29T11:02:20.957Z,35.45
2022-12-29T11:05:48.363Z,35.92
2022-12-29T11:09:00.486Z,33.50
2022-12-29T11:12:26.778Z,32.97
2022-12-29T11:15:51.889Z,33.97
2022-12-29T11:18:57.599Z,34.00
2022-12-29T11:22:23.304Z,37.38
2022-12-29T11:25:29.078Z,40.45
2022-12-29T11:28:34.968Z,51.10
2022-12-29T11:31:53.841Z,39.88
2022-12-29T11:35:00.111Z,40.88
2022-12-29T11:38:06.659Z,49.60
2022-12-29T11:41:14.866Z,49.83
2022-12-29T11:44:20.382Z,50.50
2022-12-29T11:47:34.160Z,49.90
2022-12-29T11:50:43.131Z,50.63
2022-12-29T11:53:53.949Z,57.60
2022-12-29T11:57:11.068Z,64.40
2022-12-29T12:00:22.978Z,65.05
2022-12-29T12:03:32.291Z,62.60
2022-12-29T12:07:02.959Z,66.72
2022-12-29T12:10:23.907Z,60.63
2022-12-29T12:14:03.879Z,58.63
2022-12-29T12:18:01.533Z,63.47
2022-12-29T12:21:45.791Z,54.10
2022-12-29T12:25:08.216Z,49.78
2022-12-29T12:28:41.343Z,53.58
2022-12-29T12:31:48.895Z,48.53
2022-12-29T12:34:54.386Z,52.13
2022-12-29T12:38:37.302Z,52.15
2022-12-29T12:42:24.406Z,53.92
2022-12-29T12:45:48.453Z,48.13
2022-12-29T12:49:31.230Z,51.22
2022-12-29T12:52:51.577Z,54.15
2022-12-29T12:56:33.968Z,61.03
2022-12-29T13:03:12.033Z,59.50
2022-12-29T13:06:39.369Z,60.13
2022-12-29T13:10:21.383Z,63.35
2022-12-29T13:13:57.520Z,67.72
2022-12-29T13:17:06.185Z,60.75
2022-12-29T13:20:21.984Z,67.85
2022-12-29T13:23:37.170Z,69.32
2022-12-29T13:26:59.264Z,65.60
2022-12-29T13:33:42.762Z,66.27
2022-12-29T13:40:21.356Z,65.57
2022-12-29T13:43:31.289Z,56.15
2022-12-29T13:46:44.183Z,64.50
2022-12-29T13:49:51.554Z,52.72
2022-12-29T13:53:27.632Z,64.68
2022-12-29T13:56:51.518Z,55.00
2022-12-29T14:00:05.441Z,57.35
2022-12-29T14:03:30.500Z,54.90
2022-12-29T14:06:42.199Z,57.85
2022-12-29T14:09:54.004Z,60.28
2022-12-29T14:16:49.609Z,61.95
2022-12-29T14:19:55.587Z,63.60
2022-12-29T14:23:17.699Z,63.05
2022-12-29T14:26:32.123Z,69.30
2022-12-29T14:29:40.261Z,63.42
2022-12-29T14:33:04.528Z,65.53
2022-12-29T14:36:28.457Z,64.22
2022-12-29T14:39:45.639Z,69.47
2022-12-29T14:42:54.992Z,69.32
2022-12-29T14:46:03.269Z,70.45
2022-12-29T14:49:18.322Z,70.28
2022-12-29T14:52:30.058Z,74.03
2022-12-29T14:55:53.146Z,65.88
2022-12-29T14:59:04.456Z,72.07
2022-12-29T15:02:39.991Z,81.07
2022-12-29T15:06:09.689Z,72.53
2022-12-29T15:09:40.195Z,67.35
2022-12-29T15:12:55.317Z,75.82
2022-12-29T15:16:00.972Z,74.88
2022-12-29T15:19:23.987Z,78.82
2022-12-29T15:22:31.540Z,74.57
2022-12-29T15:25:37.611Z,73.78
2022-12-29T15:28:46.735Z,79.70
2022-12-29T15:31:52.015Z,73.63
2022-12-29T15:35:04.262Z,85.72
2022-12-29T15:38:28.110Z,76.45
2022-12-29T15:42:03.721Z,79.93
2022-12-29T15:45:13.890Z,76.18
2022-12-29T15:48:24.112Z,88.85
2022-12-29T15:51:34.946Z,77.22
2022-12-29T15:54:44.193Z,81.93
2022-12-29T15:57:50.092Z,76.93
2022-12-29T16:01:03.131Z,75.30
2022-12-29T16:04:10.771Z,78.68
2022-12-29T16:07:41.138Z,83.75
2022-12-29T16:10:46.977Z,79.85
2022-12-29T16:13:55.257Z,82.30
2022-12-29T16:17:05.338Z,85.20
2022-12-29T16:20:42.099Z,74.90
2022-12-29T16:23:51.892Z,74.65
2022-12-29T16:27:07.803Z,81.28
2022-12-29T16:30:27.949Z,80.63
2022-12-29T16:33:50.817Z,76.13
2022-12-29T16:37:00.130Z,68.80
2022-12-29T16:40:34.611Z,73.75
2022-12-29T16:43:43.675Z,74.47
2022-12-29T16:47:12.861Z,80.03
2022-12-29T16:50:28.303Z,83.65
2022-12-29T16:53:38.741Z,85.40
2022-12-29T16:56:46.293Z,77.93
2022-12-29T16:59:54.322Z,86.68
2022-12-29T17:03:02.158Z,90.82
2022-12-29T17:06:16.625Z,82.85
2022-12-29T17:09:27.097Z,88.85
2022-12-29T17:12:35.760Z,137.98
2022-12-29T17:15:41.479Z,93.28
2022-12-29T17:18:46.993Z,80.70
2022-12-29T17:21:52.393Z,82.07
2022-12-29T17:25:00.143Z,85.63
2022-12-29T17:28:21.360Z,99.53
2022-12-29T17:31:26.863Z,84.10
2022-12-29T17:34:32.913Z,86.38
2022-12-29T17:37:38.587Z,88.93
2022-12-29T17:40:44.528Z,85.80
2022-12-29T17:43:50.033Z,80.80
2022-12-29T17:46:55.172Z,78.18
2022-12-29T17:50:00.699Z,76.88
2022-12-29T17:53:11.263Z,80.28
2022-12-29T17:56:16.622Z,76.78
2022-12-29T17:59:21.801Z,76.70
2022-12-29T18:02:31.808Z,78.22
2022-12-29T18:05:37.307Z,66.82
2022-12-29T18:08:42.911Z,71.80
2022-12-29T18:11:48.622Z,59.97
2022-12-29T18:14:56.012Z,76.07
2022-12-29T18:18:18.515Z,61.75
2022-12-29T18:21:25.699Z,55.90
2022-12-29T18:24:31.617Z,62.95
2022-12-29T18:27:37.196Z,57.78
2022-12-29T18:30:42.719Z,61.80
2022-12-29T18:33:50.816Z,91.95
2022-12-29T18:36:56.785Z,66.38
2022-12-29T18:40:02.745Z,64.47
2022-12-29T18:43:08.539Z,62.72
2022-12-29T18:46:20.507Z,62.03
2022-12-29T18:49:28.993Z,59.65
2022-12-29T18:52:35.102Z,62.92
2022-12-29T18:55:41.138Z,56.60
2022-12-29T18:58:47.197Z,60.83
2022-12-29T19:01:53.057Z,68.47
2022-12-29T19:05:06.806Z,60.97
2022-12-29T19:08:13.770Z,64.35
2022-12-29T19:11:20.073Z,76.10
2022-12-29T19:14:25.846Z,295.45
2022-12-29T19:17:31.324Z,159.98
2022-12-29T19:20:40.168Z,102.30
2022-12-29T19:23:45.839Z,78.97
2022-12-29T19:26:51.239Z,80.07
2022-12-29T19:29:56.208Z,72.35
2022-12-29T19:33:09.629Z,78.28
2022-12-29T19:36:18.258Z,77.97
2022-12-29T19:39:23.588Z,77.93
2022-12-29T19:42:29.211Z,67.28
2022-12-29T19:45:34.589Z,70.43
2022-12-29T19:48:40.076Z,71.78
2022-12-29T19:51:45.657Z,68.35
2022-12-29T19:54:51.135Z,75.10
2022-12-29T19:57:56.534Z,66.88
2022-12-29T20:01:10.458Z,83.38
2022-12-29T20:04:15.919Z,76.85
2022-12-29T20:07:23.038Z,75.50
2022-12-29T20:10:28.529Z,74.28
2022-12-29T20:13:35.313Z,78.72
2022-12-29T20:17:02.515Z,66.93
2022-12-29T20:20:08.110Z,70.65
2022-12-29T20:23:13.557Z,78.68
2022-12-29T20:26:22.380Z,72.18
2022-12-29T20:29:27.753Z,75.50
2022-12-29T20:32:35.866Z,72.93
2022-12-29T20:35:41.202Z,74.70
2022-12-29T20:38:48.096Z,67.43
2022-12-29T20:41:53.403Z,60.60
2022-12-29T20:44:58.484Z,76.00
2022-12-29T20:48:03.778Z,69.43
2022-12-29T20:51:09.762Z,58.50
2022-12-29T20:54:16.291Z,70.55
2022-12-29T20:57:21.852Z,59.97
2022-12-29T21:00:30.703Z,59.90
2022-12-29T21:03:36.780Z,65.38
2022-12-29T21:06:42.494Z,61.97
2022-12-29T21:09:48.011Z,69.65
2022-12-29T21:12:53.508Z,59.60
2022-12-29T21:16:02.596Z,57.05
2022-12-29T21:19:08.397Z,60.72
2022-12-29T21:22:13.827Z,58.40
2022-12-29T21:25:19.359Z,61.00
2022-12-29T21:28:25.200Z,62.72
2022-12-29T21:31:37.191Z,55.83
2022-12-29T21:34:42.933Z,62.60
2022-12-29T21:37:48.447Z,59.63
2022-12-29T21:40:54.022Z,65.80
2022-12-29T21:44:18.707Z,59.45
2022-12-29T21:47:24.158Z,62.42
2022-12-29T21:50:29.590Z,58.00
2022-12-29T21:53:38.143Z,61.53
2022-12-29T21:56:48.057Z,59.65
2022-12-29T22:00:12.477Z,63.08
2022-12-29T22:03:36.466Z,61.13
2022-12-29T22:06:59.858Z,55.03
2022-12-29T22:10:23.888Z,58.03
2022-12-29T22:13:31.914Z,60.92
2022-12-29T22:16:37.208Z,70.50
2022-12-29T22:19:42.905Z,60.00
2022-12-29T22:22:48.747Z,68.30
2022-12-29T22:25:54.619Z,55.05
2022-12-29T22:29:00.053Z,58.17
2022-12-29T22:32:05.793Z,55.67
2022-12-29T22:35:12.556Z,59.38
2022-12-29T22:38:18.265Z,58.45
2022-12-29T22:41:24.629Z,59.22
2022-12-29T22:44:30.938Z,62.80
2022-12-29T22:47:36.645Z,63.35
2022-12-29T22:50:43.429Z,60.83
2022-12-29T22:53:51.025Z,58.90
2022-12-29T22:56:56.310Z,54.90
2022-12-29T23:00:01.679Z,60.10
2022-12-29T23:03:07.456Z,57.33
2022-12-29T23:06:16.461Z,61.10
2022-12-29T23:09:23.243Z,60.35
2022-12-29T23:12:32.655Z,55.45
2022-12-29T23:15:38.375Z,58.35
2022-12-29T23:18:47.340Z,57.33
2022-12-29T23:21:52.748Z,58.70
2022-12-29T23:24:58.283Z,62.88
2022-12-29T23:28:06.168Z,57.40
2022-12-29T23:31:12.322Z,59.08
2022-12-29T23:34:18.722Z,53.53
2022-12-29T23:37:24.570Z,58.25
2022-12-29T23:40:30.025Z,53.92
2022-12-29T23:43:36.289Z,60.03
2022-12-29T23:46:42.351Z,64.68
2022-12-29T23:49:48.181Z,62.35
2022-12-29T23:52:53.821Z,64.32
2022-12-29T23:55:59.723Z,54.78
2022-12-29T23:59:06.581Z,57.78
